sensor_id;sensor_type;location;lat;lon;timestamp;P1;durP1;ratioP1;P2;durP2;ratioP2
69565;SDS011;77486;47.192;39.650;2024-03-29T00:00:40;16.02;;;8.18;;
69565;SDS011;77486;47.192;39.650;2024-03-29T00:03:06;13.15;;;8.05;;
69565;SDS011;77486;47.192;39.650;2024-03-29T00:05:35;12.65;;;7.90;;
69565;SDS011;77486;47.192;39.650;2024-03-29T00:08:02;17.52;;;7.85;;
69565;SDS011;77486;47.192;39.650;2024-03-29T00:10:28;14.32;;;7.75;;
69565;SDS011;77486;47.192;39.650;2024-03-29T00:12:54;14.68;;;7.97;;
69565;SDS011;77486;47.192;39.650;2024-03-29T00:15:19;13.02;;;7.95;;
69565;SDS011;77486;47.192;39.650;2024-03-29T00:17:45;14.70;;;7.65;;
69565;SDS011;77486;47.192;39.650;2024-03-29T00:20:11;14.20;;;8.25;;
69565;SDS011;77486;47.192;39.650;2024-03-29T00:22:37;11.98;;;7.72;;
69565;SDS011;77486;47.192;39.650;2024-03-29T00:25:02;15.55;;;8.63;;
69565;SDS011;77486;47.192;39.650;2024-03-29T00:27:28;14.60;;;8.43;;
69565;SDS011;77486;47.192;39.650;2024-03-29T00:29:55;14.98;;;7.53;;
69565;SDS011;77486;47.192;39.650;2024-03-29T00:32:20;13.00;;;7.57;;
69565;SDS011;77486;47.192;39.650;2024-03-29T00:34:49;13.48;;;7.97;;
69565;SDS011;77486;47.192;39.650;2024-03-29T00:37:16;12.32;;;8.05;;
69565;SDS011;77486;47.192;39.650;2024-03-29T00:39:42;15.57;;;8.15;;
69565;SDS011;77486;47.192;39.650;2024-03-29T00:42:08;13.63;;;7.95;;
69565;SDS011;77486;47.192;39.650;2024-03-29T00:44:38;13.70;;;7.88;;
69565;SDS011;77486;47.192;39.650;2024-03-29T00:47:04;13.80;;;7.55;;
69565;SDS011;77486;47.192;39.650;2024-03-29T00:49:30;13.57;;;7.88;;
69565;SDS011;77486;47.192;39.650;2024-03-29T00:51:56;13.18;;;7.05;;
69565;SDS011;77486;47.192;39.650;2024-03-29T00:54:22;13.60;;;7.82;;
69565;SDS011;77486;47.192;39.650;2024-03-29T00:56:50;11.52;;;7.63;;
69565;SDS011;77486;47.192;39.650;2024-03-29T00:59:16;13.35;;;7.18;;
69565;SDS011;77486;47.192;39.650;2024-03-29T01:01:42;15.43;;;7.93;;
69565;SDS011;77486;47.192;39.650;2024-03-29T01:04:08;13.63;;;7.40;;
69565;SDS011;77486;47.192;39.650;2024-03-29T01:06:34;13.98;;;7.60;;
69565;SDS011;77486;47.192;39.650;2024-03-29T01:09:02;13.50;;;7.68;;
69565;SDS011;77486;47.192;39.650;2024-03-29T01:11:28;16.15;;;7.95;;
69565;SDS011;77486;47.192;39.650;2024-03-29T01:13:55;13.00;;;7.40;;
69565;SDS011;77486;47.192;39.650;2024-03-29T01:16:20;12.60;;;7.38;;
69565;SDS011;77486;47.192;39.650;2024-03-29T01:18:46;13.15;;;8.00;;
69565;SDS011;77486;47.192;39.650;2024-03-29T01:21:12;13.15;;;7.75;;
69565;SDS011;77486;47.192;39.650;2024-03-29T01:23:38;13.77;;;7.75;;
69565;SDS011;77486;47.192;39.650;2024-03-29T01:26:04;14.30;;;7.72;;
69565;SDS011;77486;47.192;39.650;2024-03-29T01:28:31;15.23;;;8.15;;
69565;SDS011;77486;47.192;39.650;2024-03-29T01:30:56;13.52;;;7.90;;
69565;SDS011;77486;47.192;39.650;2024-03-29T01:33:23;14.60;;;7.75;;
69565;SDS011;77486;47.192;39.650;2024-03-29T01:35:49;14.60;;;8.02;;
69565;SDS011;77486;47.192;39.650;2024-03-29T01:38:15;14.93;;;7.38;;
69565;SDS011;77486;47.192;39.650;2024-03-29T01:40:41;13.50;;;7.78;;
69565;SDS011;77486;47.192;39.650;2024-03-29T01:43:07;13.82;;;7.38;;
69565;SDS011;77486;47.192;39.650;2024-03-29T01:45:35;13.73;;;8.10;;
69565;SDS011;77486;47.192;39.650;2024-03-29T01:48:03;17.98;;;8.15;;
69565;SDS011;77486;47.192;39.650;2024-03-29T01:50:30;14.15;;;7.55;;
69565;SDS011;77486;47.192;39.650;2024-03-29T01:52:56;13.25;;;8.05;;
69565;SDS011;77486;47.192;39.650;2024-03-29T01:55:22;13.90;;;8.23;;
69565;SDS011;77486;47.192;39.650;2024-03-29T01:57:48;13.18;;;7.65;;
69565;SDS011;77486;47.192;39.650;2024-03-29T02:00:15;14.98;;;8.32;;
69565;SDS011;77486;47.192;39.650;2024-03-29T02:02:41;17.00;;;8.35;;
69565;SDS011;77486;47.192;39.650;2024-03-29T02:05:07;17.52;;;8.15;;
69565;SDS011;77486;47.192;39.650;2024-03-29T02:07:32;14.23;;;7.32;;
69565;SDS011;77486;47.192;39.650;2024-03-29T02:09:58;13.88;;;7.65;;
69565;SDS011;77486;47.192;39.650;2024-03-29T02:12:24;15.55;;;7.50;;
69565;SDS011;77486;47.192;39.650;2024-03-29T02:14:50;14.02;;;7.47;;
69565;SDS011;77486;47.192;39.650;2024-03-29T02:17:15;13.73;;;7.60;;
69565;SDS011;77486;47.192;39.650;2024-03-29T02:19:41;12.57;;;7.55;;
69565;SDS011;77486;47.192;39.650;2024-03-29T02:22:06;14.40;;;7.05;;
69565;SDS011;77486;47.192;39.650;2024-03-29T02:24:35;16.67;;;7.55;;
69565;SDS011;77486;47.192;39.650;2024-03-29T02:27:01;11.95;;;7.68;;
69565;SDS011;77486;47.192;39.650;2024-03-29T02:29:26;15.45;;;7.90;;
69565;SDS011;77486;47.192;39.650;2024-03-29T02:31:52;14.07;;;7.60;;
69565;SDS011;77486;47.192;39.650;2024-03-29T02:34:18;16.02;;;7.68;;
69565;SDS011;77486;47.192;39.650;2024-03-29T02:36:44;15.55;;;7.72;;
69565;SDS011;77486;47.192;39.650;2024-03-29T02:39:10;16.50;;;8.48;;
69565;SDS011;77486;47.192;39.650;2024-03-29T02:41:36;18.48;;;8.13;;
69565;SDS011;77486;47.192;39.650;2024-03-29T02:44:01;17.80;;;8.45;;
69565;SDS011;77486;47.192;39.650;2024-03-29T02:46:27;18.00;;;7.75;;
69565;SDS011;77486;47.192;39.650;2024-03-29T02:48:52;18.35;;;7.70;;
69565;SDS011;77486;47.192;39.650;2024-03-29T02:51:18;15.38;;;7.55;;
69565;SDS011;77486;47.192;39.650;2024-03-29T02:53:44;17.23;;;8.43;;
69565;SDS011;77486;47.192;39.650;2024-03-29T02:56:09;15.05;;;8.02;;
69565;SDS011;77486;47.192;39.650;2024-03-29T02:58:35;17.42;;;8.15;;
69565;SDS011;77486;47.192;39.650;2024-03-29T03:01:09;18.05;;;7.95;;
69565;SDS011;77486;47.192;39.650;2024-03-29T03:03:35;14.52;;;7.53;;
69565;SDS011;77486;47.192;39.650;2024-03-29T03:06:02;18.90;;;7.78;;
69565;SDS011;77486;47.192;39.650;2024-03-29T03:08:29;13.10;;;7.25;;
69565;SDS011;77486;47.192;39.650;2024-03-29T03:11:13;17.80;;;7.63;;
69565;SDS011;77486;47.192;39.650;2024-03-29T03:13:38;16.23;;;7.40;;
69565;SDS011;77486;47.192;39.650;2024-03-29T03:16:04;15.57;;;7.30;;
69565;SDS011;77486;47.192;39.650;2024-03-29T03:18:30;16.27;;;7.43;;
69565;SDS011;77486;47.192;39.650;2024-03-29T03:20:55;14.93;;;7.70;;
69565;SDS011;77486;47.192;39.650;2024-03-29T03:23:25;15.32;;;8.05;;
69565;SDS011;77486;47.192;39.650;2024-03-29T03:25:54;13.05;;;8.13;;
69565;SDS011;77486;47.192;39.650;2024-03-29T03:28:20;12.18;;;7.45;;
69565;SDS011;77486;47.192;39.650;2024-03-29T03:30:46;15.95;;;8.38;;
69565;SDS011;77486;47.192;39.650;2024-03-29T03:33:12;15.80;;;7.65;;
69565;SDS011;77486;47.192;39.650;2024-03-29T03:35:38;13.73;;;7.40;;
69565;SDS011;77486;47.192;39.650;2024-03-29T03:38:04;13.95;;;8.00;;
69565;SDS011;77486;47.192;39.650;2024-03-29T03:40:29;13.68;;;8.02;;
69565;SDS011;77486;47.192;39.650;2024-03-29T03:42:55;17.45;;;8.55;;
69565;SDS011;77486;47.192;39.650;2024-03-29T03:45:20;13.07;;;7.75;;
69565;SDS011;77486;47.192;39.650;2024-03-29T03:47:46;11.80;;;7.03;;
69565;SDS011;77486;47.192;39.650;2024-03-29T03:50:11;12.73;;;7.70;;
69565;SDS011;77486;47.192;39.650;2024-03-29T03:52:37;14.63;;;8.40;;
69565;SDS011;77486;47.192;39.650;2024-03-29T03:55:02;12.50;;;7.93;;
69565;SDS011;77486;47.192;39.650;2024-03-29T03:57:28;13.00;;;7.93;;
69565;SDS011;77486;47.192;39.650;2024-03-29T03:59:53;15.30;;;7.63;;
69565;SDS011;77486;47.192;39.650;2024-03-29T04:02:19;11.80;;;7.88;;
69565;SDS011;77486;47.192;39.650;2024-03-29T04:04:48;13.13;;;7.93;;
69565;SDS011;77486;47.192;39.650;2024-03-29T04:07:14;14.90;;;8.43;;
69565;SDS011;77486;47.192;39.650;2024-03-29T04:09:39;14.50;;;8.13;;
69565;SDS011;77486;47.192;39.650;2024-03-29T04:12:04;14.40;;;8.23;;
69565;SDS011;77486;47.192;39.650;2024-03-29T04:14:30;17.85;;;8.77;;
69565;SDS011;77486;47.192;39.650;2024-03-29T04:16:56;16.77;;;8.98;;
69565;SDS011;77486;47.192;39.650;2024-03-29T04:19:21;15.77;;;8.70;;
69565;SDS011;77486;47.192;39.650;2024-03-29T04:21:47;15.00;;;8.50;;
69565;SDS011;77486;47.192;39.650;2024-03-29T04:24:12;15.10;;;8.38;;
69565;SDS011;77486;47.192;39.650;2024-03-29T04:26:38;16.67;;;9.10;;
69565;SDS011;77486;47.192;39.650;2024-03-29T04:29:04;14.55;;;8.32;;
69565;SDS011;77486;47.192;39.650;2024-03-29T04:31:30;16.77;;;8.38;;
69565;SDS011;77486;47.192;39.650;2024-03-29T04:33:55;15.30;;;8.02;;
69565;SDS011;77486;47.192;39.650;2024-03-29T04:36:21;14.77;;;8.43;;
69565;SDS011;77486;47.192;39.650;2024-03-29T04:38:47;14.48;;;7.97;;
69565;SDS011;77486;47.192;39.650;2024-03-29T04:41:12;20.15;;;9.05;;
69565;SDS011;77486;47.192;39.650;2024-03-29T04:43:39;16.15;;;8.35;;
69565;SDS011;77486;47.192;39.650;2024-03-29T04:46:09;16.23;;;8.77;;
69565;SDS011;77486;47.192;39.650;2024-03-29T04:48:39;16.70;;;8.60;;
69565;SDS011;77486;47.192;39.650;2024-03-29T04:51:06;16.08;;;8.60;;
69565;SDS011;77486;47.192;39.650;2024-03-29T04:53:34;17.90;;;8.63;;
69565;SDS011;77486;47.192;39.650;2024-03-29T04:56:00;17.38;;;8.98;;
69565;SDS011;77486;47.192;39.650;2024-03-29T04:58:26;19.38;;;9.00;;
69565;SDS011;77486;47.192;39.650;2024-03-29T05:00:52;21.08;;;9.45;;
69565;SDS011;77486;47.192;39.650;2024-03-29T05:03:18;19.20;;;9.35;;
69565;SDS011;77486;47.192;39.650;2024-03-29T05:05:45;22.27;;;9.93;;
69565;SDS011;77486;47.192;39.650;2024-03-29T05:08:11;19.23;;;9.27;;
69565;SDS011;77486;47.192;39.650;2024-03-29T05:10:37;20.20;;;9.32;;
69565;SDS011;77486;47.192;39.650;2024-03-29T05:13:02;24.38;;;10.05;;
69565;SDS011;77486;47.192;39.650;2024-03-29T05:15:28;19.35;;;9.32;;
69565;SDS011;77486;47.192;39.650;2024-03-29T05:17:54;19.98;;;10.07;;
69565;SDS011;77486;47.192;39.650;2024-03-29T05:20:19;18.40;;;9.38;;
69565;SDS011;77486;47.192;39.650;2024-03-29T05:22:45;18.00;;;9.32;;
69565;SDS011;77486;47.192;39.650;2024-03-29T05:25:10;21.83;;;9.90;;
69565;SDS011;77486;47.192;39.650;2024-03-29T05:27:36;18.77;;;9.20;;
69565;SDS011;77486;47.192;39.650;2024-03-29T05:30:02;19.70;;;8.98;;
69565;SDS011;77486;47.192;39.650;2024-03-29T05:32:29;18.88;;;9.73;;
69565;SDS011;77486;47.192;39.650;2024-03-29T05:34:55;17.45;;;8.77;;
69565;SDS011;77486;47.192;39.650;2024-03-29T05:37:20;16.92;;;8.90;;
69565;SDS011;77486;47.192;39.650;2024-03-29T05:39:47;20.90;;;9.65;;
69565;SDS011;77486;47.192;39.650;2024-03-29T05:42:13;20.48;;;9.63;;
69565;SDS011;77486;47.192;39.650;2024-03-29T05:44:38;17.25;;;9.38;;
69565;SDS011;77486;47.192;39.650;2024-03-29T05:47:04;19.08;;;9.45;;
69565;SDS011;77486;47.192;39.650;2024-03-29T05:49:30;20.27;;;9.68;;
69565;SDS011;77486;47.192;39.650;2024-03-29T05:51:56;22.50;;;11.70;;
69565;SDS011;77486;47.192;39.650;2024-03-29T05:54:22;26.73;;;10.77;;
69565;SDS011;77486;47.192;39.650;2024-03-29T05:56:48;18.55;;;10.40;;
69565;SDS011;77486;47.192;39.650;2024-03-29T05:59:13;19.95;;;9.93;;
69565;SDS011;77486;47.192;39.650;2024-03-29T06:01:39;20.88;;;10.00;;
69565;SDS011;77486;47.192;39.650;2024-03-29T06:04:05;16.30;;;9.43;;
69565;SDS011;77486;47.192;39.650;2024-03-29T06:06:39;23.38;;;9.73;;
69565;SDS011;77486;47.192;39.650;2024-03-29T06:09:04;18.80;;;9.18;;
69565;SDS011;77486;47.192;39.650;2024-03-29T06:11:30;21.75;;;10.02;;
69565;SDS011;77486;47.192;39.650;2024-03-29T06:13:56;18.50;;;9.73;;
69565;SDS011;77486;47.192;39.650;2024-03-29T06:16:23;20.70;;;10.20;;
69565;SDS011;77486;47.192;39.650;2024-03-29T06:19:08;18.98;;;10.07;;
69565;SDS011;77486;47.192;39.650;2024-03-29T06:21:34;20.08;;;9.57;;
69565;SDS011;77486;47.192;39.650;2024-03-29T06:26:32;20.70;;;10.02;;
69565;SDS011;77486;47.192;39.650;2024-03-29T06:28:58;20.58;;;10.10;;
69565;SDS011;77486;47.192;39.650;2024-03-29T06:31:23;16.48;;;8.65;;
69565;SDS011;77486;47.192;39.650;2024-03-29T06:33:49;18.08;;;9.10;;
69565;SDS011;77486;47.192;39.650;2024-03-29T06:36:14;15.07;;;7.97;;
69565;SDS011;77486;47.192;39.650;2024-03-29T06:38:40;14.98;;;8.35;;
69565;SDS011;77486;47.192;39.650;2024-03-29T06:41:05;12.68;;;8.02;;
69565;SDS011;77486;47.192;39.650;2024-03-29T06:43:31;17.15;;;8.32;;
69565;SDS011;77486;47.192;39.650;2024-03-29T06:45:56;14.35;;;8.05;;
69565;SDS011;77486;47.192;39.650;2024-03-29T06:48:23;13.35;;;7.78;;
69565;SDS011;77486;47.192;39.650;2024-03-29T06:50:49;17.58;;;8.40;;
69565;SDS011;77486;47.192;39.650;2024-03-29T06:53:14;14.00;;;8.13;;
69565;SDS011;77486;47.192;39.650;2024-03-29T06:55:40;13.88;;;8.45;;
69565;SDS011;77486;47.192;39.650;2024-03-29T06:58:06;17.67;;;9.20;;
69565;SDS011;77486;47.192;39.650;2024-03-29T07:00:32;10.98;;;7.05;;
69565;SDS011;77486;47.192;39.650;2024-03-29T07:02:58;14.55;;;8.50;;
69565;SDS011;77486;47.192;39.650;2024-03-29T07:05:23;13.57;;;7.95;;
69565;SDS011;77486;47.192;39.650;2024-03-29T07:07:49;14.02;;;7.63;;
69565;SDS011;77486;47.192;39.650;2024-03-29T07:10:14;13.73;;;8.32;;
69565;SDS011;77486;47.192;39.650;2024-03-29T07:12:40;14.23;;;8.18;;
69565;SDS011;77486;47.192;39.650;2024-03-29T07:15:05;17.33;;;9.55;;
69565;SDS011;77486;47.192;39.650;2024-03-29T07:17:31;18.33;;;10.35;;
69565;SDS011;77486;47.192;39.650;2024-03-29T07:19:57;17.10;;;8.70;;
69565;SDS011;77486;47.192;39.650;2024-03-29T07:22:22;14.73;;;8.30;;
69565;SDS011;77486;47.192;39.650;2024-03-29T07:24:48;17.27;;;9.82;;
69565;SDS011;77486;47.192;39.650;2024-03-29T07:27:13;22.55;;;11.25;;
69565;SDS011;77486;47.192;39.650;2024-03-29T07:29:42;18.60;;;8.77;;
69565;SDS011;77486;47.192;39.650;2024-03-29T07:32:09;13.57;;;7.45;;
69565;SDS011;77486;47.192;39.650;2024-03-29T07:34:34;12.23;;;7.25;;
69565;SDS011;77486;47.192;39.650;2024-03-29T07:37:00;15.20;;;8.18;;
69565;SDS011;77486;47.192;39.650;2024-03-29T07:39:26;12.43;;;7.80;;
69565;SDS011;77486;47.192;39.650;2024-03-29T07:41:51;14.70;;;8.25;;
69565;SDS011;77486;47.192;39.650;2024-03-29T07:44:17;24.15;;;13.02;;
69565;SDS011;77486;47.192;39.650;2024-03-29T07:46:42;55.58;;;24.88;;
69565;SDS011;77486;47.192;39.650;2024-03-29T07:49:10;35.58;;;16.98;;
69565;SDS011;77486;47.192;39.650;2024-03-29T07:51:36;38.05;;;17.08;;
69565;SDS011;77486;47.192;39.650;2024-03-29T07:54:01;29.63;;;14.32;;
69565;SDS011;77486;47.192;39.650;2024-03-29T07:56:26;19.77;;;9.85;;
69565;SDS011;77486;47.192;39.650;2024-03-29T07:58:52;31.55;;;15.43;;
69565;SDS011;77486;47.192;39.650;2024-03-29T08:01:22;28.35;;;12.85;;
69565;SDS011;77486;47.192;39.650;2024-03-29T08:03:50;22.30;;;11.32;;
69565;SDS011;77486;47.192;39.650;2024-03-29T08:06:18;14.48;;;8.25;;
69565;SDS011;77486;47.192;39.650;2024-03-29T08:08:44;16.25;;;8.30;;
69565;SDS011;77486;47.192;39.650;2024-03-29T08:11:10;21.70;;;10.13;;
69565;SDS011;77486;47.192;39.650;2024-03-29T08:13:37;28.48;;;13.88;;
69565;SDS011;77486;47.192;39.650;2024-03-29T08:16:04;20.95;;;9.40;;
69565;SDS011;77486;47.192;39.650;2024-03-29T08:18:31;31.20;;;12.90;;
69565;SDS011;77486;47.192;39.650;2024-03-29T08:20:57;14.23;;;6.82;;
69565;SDS011;77486;47.192;39.650;2024-03-29T08:23:24;9.95;;;4.90;;
69565;SDS011;77486;47.192;39.650;2024-03-29T08:25:50;10.98;;;4.60;;
69565;SDS011;77486;47.192;39.650;2024-03-29T08:28:20;10.40;;;4.85;;
69565;SDS011;77486;47.192;39.650;2024-03-29T08:30:46;12.10;;;4.55;;
69565;SDS011;77486;47.192;39.650;2024-03-29T08:33:11;10.35;;;4.25;;
69565;SDS011;77486;47.192;39.650;2024-03-29T08:35:37;11.95;;;4.97;;
69565;SDS011;77486;47.192;39.650;2024-03-29T08:38:04;11.90;;;4.88;;
69565;SDS011;77486;47.192;39.650;2024-03-29T08:40:30;8.52;;;4.03;;
69565;SDS011;77486;47.192;39.650;2024-03-29T08:42:57;10.35;;;4.45;;
69565;SDS011;77486;47.192;39.650;2024-03-29T08:45:23;9.27;;;4.38;;
69565;SDS011;77486;47.192;39.650;2024-03-29T08:47:48;10.98;;;5.28;;
69565;SDS011;77486;47.192;39.650;2024-03-29T08:50:14;12.38;;;7.15;;
69565;SDS011;77486;47.192;39.650;2024-03-29T08:52:40;12.00;;;4.28;;
69565;SDS011;77486;47.192;39.650;2024-03-29T08:55:06;7.22;;;3.50;;
69565;SDS011;77486;47.192;39.650;2024-03-29T08:57:32;7.47;;;2.90;;
69565;SDS011;77486;47.192;39.650;2024-03-29T08:59:58;8.68;;;3.50;;
69565;SDS011;77486;47.192;39.650;2024-03-29T09:02:23;7.90;;;3.60;;
69565;SDS011;77486;47.192;39.650;2024-03-29T09:04:49;10.63;;;3.70;;
69565;SDS011;77486;47.192;39.650;2024-03-29T09:07:15;7.00;;;3.53;;
69565;SDS011;77486;47.192;39.650;2024-03-29T09:09:40;8.70;;;4.15;;
69565;SDS011;77486;47.192;39.650;2024-03-29T09:12:09;10.90;;;3.30;;
69565;SDS011;77486;47.192;39.650;2024-03-29T09:14:35;8.05;;;3.75;;
69565;SDS011;77486;47.192;39.650;2024-03-29T09:17:00;11.30;;;4.43;;
69565;SDS011;77486;47.192;39.650;2024-03-29T09:19:27;9.57;;;4.60;;
69565;SDS011;77486;47.192;39.650;2024-03-29T09:21:55;10.77;;;4.32;;
69565;SDS011;77486;47.192;39.650;2024-03-29T09:24:20;14.80;;;6.38;;
69565;SDS011;77486;47.192;39.650;2024-03-29T09:26:48;13.15;;;5.80;;
69565;SDS011;77486;47.192;39.650;2024-03-29T09:29:14;11.73;;;5.07;;
69565;SDS011;77486;47.192;39.650;2024-03-29T09:31:41;11.05;;;5.57;;
69565;SDS011;77486;47.192;39.650;2024-03-29T09:34:06;9.45;;;3.88;;
69565;SDS011;77486;47.192;39.650;2024-03-29T09:36:32;13.40;;;6.05;;
69565;SDS011;77486;47.192;39.650;2024-03-29T09:38:57;13.52;;;6.00;;
69565;SDS011;77486;47.192;39.650;2024-03-29T09:41:23;10.13;;;4.50;;
69565;SDS011;77486;47.192;39.650;2024-03-29T09:43:52;10.88;;;4.53;;
69565;SDS011;77486;47.192;39.650;2024-03-29T09:46:20;10.23;;;4.40;;
69565;SDS011;77486;47.192;39.650;2024-03-29T09:48:46;12.43;;;6.05;;
69565;SDS011;77486;47.192;39.650;2024-03-29T09:51:14;9.20;;;4.50;;
69565;SDS011;77486;47.192;39.650;2024-03-29T09:53:43;9.23;;;4.15;;
69565;SDS011;77486;47.192;39.650;2024-03-29T09:56:09;10.07;;;4.78;;
69565;SDS011;77486;47.192;39.650;2024-03-29T09:58:36;11.07;;;5.18;;
69565;SDS011;77486;47.192;39.650;2024-03-29T10:01:03;11.70;;;5.18;;
69565;SDS011;77486;47.192;39.650;2024-03-29T10:03:30;13.98;;;5.65;;
69565;SDS011;77486;47.192;39.650;2024-03-29T10:05:57;13.70;;;5.88;;
69565;SDS011;77486;47.192;39.650;2024-03-29T10:08:27;12.27;;;4.82;;
69565;SDS011;77486;47.192;39.650;2024-03-29T10:10:55;10.50;;;4.57;;
69565;SDS011;77486;47.192;39.650;2024-03-29T10:13:21;11.82;;;4.80;;
69565;SDS011;77486;47.192;39.650;2024-03-29T10:15:54;10.70;;;4.85;;
69565;SDS011;77486;47.192;39.650;2024-03-29T10:18:21;14.35;;;5.65;;
69565;SDS011;77486;47.192;39.650;2024-03-29T10:20:57;9.70;;;4.97;;
69565;SDS011;77486;47.192;39.650;2024-03-29T10:23:27;13.63;;;5.40;;
69565;SDS011;77486;47.192;39.650;2024-03-29T10:25:53;11.52;;;5.00;;
69565;SDS011;77486;47.192;39.650;2024-03-29T10:28:19;12.75;;;5.00;;
69565;SDS011;77486;47.192;39.650;2024-03-29T10:30:44;12.13;;;5.25;;
69565;SDS011;77486;47.192;39.650;2024-03-29T10:35:58;10.80;;;5.95;;
69565;SDS011;77486;47.192;39.650;2024-03-29T10:38:25;12.63;;;6.13;;
69565;SDS011;77486;47.192;39.650;2024-03-29T10:40:51;16.67;;;6.72;;
69565;SDS011;77486;47.192;39.650;2024-03-29T10:43:18;13.95;;;6.18;;
69565;SDS011;77486;47.192;39.650;2024-03-29T10:45:48;14.25;;;6.68;;
69565;SDS011;77486;47.192;39.650;2024-03-29T10:48:16;14.25;;;6.55;;
69565;SDS011;77486;47.192;39.650;2024-03-29T10:50:42;19.55;;;7.38;;
69565;SDS011;77486;47.192;39.650;2024-03-29T10:53:08;12.02;;;5.43;;
69565;SDS011;77486;47.192;39.650;2024-03-29T10:55:35;11.80;;;5.40;;
69565;SDS011;77486;47.192;39.650;2024-03-29T10:58:04;10.02;;;4.80;;
69565;SDS011;77486;47.192;39.650;2024-03-29T11:00:34;9.98;;;5.13;;
69565;SDS011;77486;47.192;39.650;2024-03-29T11:05:57;10.38;;;4.75;;
69565;SDS011;77486;47.192;39.650;2024-03-29T11:08:30;12.77;;;5.75;;
69565;SDS011;77486;47.192;39.650;2024-03-29T11:11:04;12.55;;;5.00;;
69565;SDS011;77486;47.192;39.650;2024-03-29T11:16:05;19.05;;;6.25;;
69565;SDS011;77486;47.192;39.650;2024-03-29T11:18:31;13.65;;;5.55;;
69565;SDS011;77486;47.192;39.650;2024-03-29T11:20:58;13.32;;;6.13;;
69565;SDS011;77486;47.192;39.650;2024-03-29T11:23:25;15.60;;;6.25;;
69565;SDS011;77486;47.192;39.650;2024-03-29T11:25:52;14.77;;;5.78;;
69565;SDS011;77486;47.192;39.650;2024-03-29T11:28:23;13.07;;;6.10;;
69565;SDS011;77486;47.192;39.650;2024-03-29T11:30:51;14.90;;;5.63;;
69565;SDS011;77486;47.192;39.650;2024-03-29T11:38:35;19.02;;;6.47;;
69565;SDS011;77486;47.192;39.650;2024-03-29T11:41:02;13.80;;;5.95;;
69565;SDS011;77486;47.192;39.650;2024-03-29T11:43:28;13.93;;;6.10;;
69565;SDS011;77486;47.192;39.650;2024-03-29T11:45:55;12.52;;;5.90;;
69565;SDS011;77486;47.192;39.650;2024-03-29T11:48:23;16.73;;;6.30;;
69565;SDS011;77486;47.192;39.650;2024-03-29T11:50:51;10.27;;;5.30;;
69565;SDS011;77486;47.192;39.650;2024-03-29T11:53:18;11.85;;;5.80;;
69565;SDS011;77486;47.192;39.650;2024-03-29T11:55:44;12.50;;;6.10;;
69565;SDS011;77486;47.192;39.650;2024-03-29T11:58:09;12.75;;;5.60;;
69565;SDS011;77486;47.192;39.650;2024-03-29T12:00:35;14.63;;;6.22;;
69565;SDS011;77486;47.192;39.650;2024-03-29T12:03:04;17.95;;;6.95;;
69565;SDS011;77486;47.192;39.650;2024-03-29T12:05:30;15.90;;;5.80;;
69565;SDS011;77486;47.192;39.650;2024-03-29T12:07:56;14.82;;;6.00;;
69565;SDS011;77486;47.192;39.650;2024-03-29T12:10:29;13.93;;;6.15;;
69565;SDS011;77486;47.192;39.650;2024-03-29T12:12:56;14.18;;;6.07;;
69565;SDS011;77486;47.192;39.650;2024-03-29T12:15:27;13.88;;;5.93;;
69565;SDS011;77486;47.192;39.650;2024-03-29T12:17:56;13.05;;;5.80;;
69565;SDS011;77486;47.192;39.650;2024-03-29T12:20:23;14.52;;;6.20;;
69565;SDS011;77486;47.192;39.650;2024-03-29T12:22:49;12.70;;;4.93;;
69565;SDS011;77486;47.192;39.650;2024-03-29T12:25:15;11.52;;;4.88;;
69565;SDS011;77486;47.192;39.650;2024-03-29T12:27:44;16.17;;;5.47;;
69565;SDS011;77486;47.192;39.650;2024-03-29T12:30:11;13.43;;;5.18;;
69565;SDS011;77486;47.192;39.650;2024-03-29T12:32:38;13.98;;;4.85;;
69565;SDS011;77486;47.192;39.650;2024-03-29T12:37:35;13.18;;;5.60;;
69565;SDS011;77486;47.192;39.650;2024-03-29T12:40:01;13.18;;;5.10;;
69565;SDS011;77486;47.192;39.650;2024-03-29T12:42:37;12.18;;;4.82;;
69565;SDS011;77486;47.192;39.650;2024-03-29T12:45:03;12.10;;;5.10;;
69565;SDS011;77486;47.192;39.650;2024-03-29T12:47:30;12.60;;;4.88;;
69565;SDS011;77486;47.192;39.650;2024-03-29T12:49:58;11.27;;;4.45;;
69565;SDS011;77486;47.192;39.650;2024-03-29T12:52:25;12.60;;;5.03;;
69565;SDS011;77486;47.192;39.650;2024-03-29T12:54:51;12.18;;;5.10;;
69565;SDS011;77486;47.192;39.650;2024-03-29T12:57:17;13.75;;;4.63;;
69565;SDS011;77486;47.192;39.650;2024-03-29T12:59:43;14.95;;;5.00;;
69565;SDS011;77486;47.192;39.650;2024-03-29T13:02:10;15.95;;;5.45;;
69565;SDS011;77486;47.192;39.650;2024-03-29T13:04:35;15.95;;;5.55;;
69565;SDS011;77486;47.192;39.650;2024-03-29T13:07:03;14.98;;;5.45;;
69565;SDS011;77486;47.192;39.650;2024-03-29T13:09:29;12.57;;;5.20;;
69565;SDS011;77486;47.192;39.650;2024-03-29T13:11:54;13.55;;;5.22;;
69565;SDS011;77486;47.192;39.650;2024-03-29T13:14:20;15.13;;;5.32;;
69565;SDS011;77486;47.192;39.650;2024-03-29T13:16:45;13.38;;;5.10;;
69565;SDS011;77486;47.192;39.650;2024-03-29T13:19:11;14.38;;;5.85;;
69565;SDS011;77486;47.192;39.650;2024-03-29T13:21:36;17.33;;;5.25;;
69565;SDS011;77486;47.192;39.650;2024-03-29T13:24:02;13.15;;;5.43;;
69565;SDS011;77486;47.192;39.650;2024-03-29T13:26:27;14.52;;;5.78;;
69565;SDS011;77486;47.192;39.650;2024-03-29T13:28:54;14.35;;;5.57;;
69565;SDS011;77486;47.192;39.650;2024-03-29T13:31:20;14.55;;;5.43;;
69565;SDS011;77486;47.192;39.650;2024-03-29T13:33:47;12.82;;;5.10;;
69565;SDS011;77486;47.192;39.650;2024-03-29T13:36:12;12.65;;;5.18;;
69565;SDS011;77486;47.192;39.650;2024-03-29T13:38:38;13.20;;;6.00;;
69565;SDS011;77486;47.192;39.650;2024-03-29T13:41:03;22.60;;;6.25;;
69565;SDS011;77486;47.192;39.650;2024-03-29T13:43:30;22.33;;;5.95;;
69565;SDS011;77486;47.192;39.650;2024-03-29T13:45:57;15.38;;;5.60;;
69565;SDS011;77486;47.192;39.650;2024-03-29T13:48:24;23.27;;;6.22;;
69565;SDS011;77486;47.192;39.650;2024-03-29T13:50:50;17.13;;;5.25;;
69565;SDS011;77486;47.192;39.650;2024-03-29T13:53:15;22.95;;;7.63;;
69565;SDS011;77486;47.192;39.650;2024-03-29T13:55:41;22.15;;;6.53;;
69565;SDS011;77486;47.192;39.650;2024-03-29T13:58:06;23.02;;;6.05;;
69565;SDS011;77486;47.192;39.650;2024-03-29T14:00:32;18.63;;;5.55;;
69565;SDS011;77486;47.192;39.650;2024-03-29T14:02:58;16.95;;;5.60;;
69565;SDS011;77486;47.192;39.650;2024-03-29T14:05:23;15.30;;;5.15;;
69565;SDS011;77486;47.192;39.650;2024-03-29T14:07:49;17.00;;;5.03;;
69565;SDS011;77486;47.192;39.650;2024-03-29T14:10:15;16.90;;;5.38;;
69565;SDS011;77486;47.192;39.650;2024-03-29T14:12:40;14.63;;;5.15;;
69565;SDS011;77486;47.192;39.650;2024-03-29T14:15:06;13.38;;;5.93;;
69565;SDS011;77486;47.192;39.650;2024-03-29T14:17:32;14.23;;;5.07;;
69565;SDS011;77486;47.192;39.650;2024-03-29T14:19:58;20.33;;;9.38;;
69565;SDS011;77486;47.192;39.650;2024-03-29T14:22:24;13.80;;;5.65;;
69565;SDS011;77486;47.192;39.650;2024-03-29T14:24:50;16.02;;;6.53;;
69565;SDS011;77486;47.192;39.650;2024-03-29T14:27:16;16.05;;;6.03;;
69565;SDS011;77486;47.192;39.650;2024-03-29T14:29:41;12.98;;;5.10;;
69565;SDS011;77486;47.192;39.650;2024-03-29T14:32:09;19.75;;;11.65;;
69565;SDS011;77486;47.192;39.650;2024-03-29T14:34:35;23.13;;;12.88;;